createdAt,value
2022-11-16T00:01:11.609Z,13.57
2022-11-16T00:04:14.927Z,13.38
2022-11-16T00:07:24.296Z,17.40
2022-11-16T00:10:27.697Z,18.77
2022-11-16T00:13:33.550Z,22.60
2022-11-16T00:16:36.888Z,26.77
2022-11-16T00:19:40.230Z,28.42
2022-11-16T00:22:45.226Z,26.83
2022-11-16T00:25:48.678Z,26.55
2022-11-16T00:28:53.590Z,24.50
2022-11-16T00:31:57.076Z,24.50
2022-11-16T00:35:00.236Z,25.50
2022-11-16T00:38:03.492Z,25.90
2022-11-16T00:41:07.201Z,27.92
2022-11-16T00:44:12.092Z,23.45
2022-11-16T00:47:16.472Z,24.50
2022-11-16T00:50:22.982Z,14.30
2022-11-16T00:53:26.531Z,14.50
2022-11-16T00:56:30.436Z,15.05
2022-11-16T00:59:33.793Z,14.98
2022-11-16T01:02:37.200Z,12.82
2022-11-16T01:05:40.570Z,11.00
2022-11-16T01:08:44.714Z,11.02
2022-11-16T01:12:06.647Z,11.50
2022-11-16T01:15:11.189Z,12.73
2022-11-16T01:18:14.384Z,11.88
2022-11-16T01:21:18.124Z,12.82
2022-11-16T01:24:21.489Z,13.85
2022-11-16T01:27:24.916Z,14.55
2022-11-16T01:30:28.372Z,12.65
2022-11-16T01:33:41.556Z,13.18
2022-11-16T01:36:53.228Z,13.32
2022-11-16T01:39:56.595Z,13.15
2022-11-16T01:43:00.248Z,15.05
2022-11-16T01:46:03.801Z,12.32
2022-11-16T01:49:14.420Z,10.98
2022-11-16T01:52:22.488Z,12.75
2022-11-16T01:55:27.365Z,13.23
2022-11-16T01:58:45.881Z,13.13
2022-11-16T02:02:02.738Z,13.68
2022-11-16T02:05:08.381Z,12.65
2022-11-16T02:08:52.470Z,12.23
2022-11-16T02:12:08.062Z,12.20
2022-11-16T02:15:26.401Z,11.75
2022-11-16T02:19:01.396Z,14.70
2022-11-16T02:22:31.023Z,15.75
2022-11-16T02:25:46.434Z,14.40
2022-11-16T02:29:07.661Z,17.77
2022-11-16T02:32:17.981Z,23.33
2022-11-16T02:35:35.701Z,20.10
2022-11-16T02:38:48.751Z,27.05
2022-11-16T02:41:54.015Z,34.63
2022-11-16T02:45:00.334Z,35.28
2022-11-16T02:48:11.944Z,30.90
2022-11-16T02:51:18.448Z,35.00
2022-11-16T02:54:25.593Z,36.95
2022-11-16T02:57:51.699Z,40.58
2022-11-16T03:01:01.961Z,38.92
2022-11-16T03:04:11.526Z,37.55
2022-11-16T03:07:23.733Z,41.25
2022-11-16T03:10:45.966Z,39.50
2022-11-16T03:13:50.373Z,34.83
2022-11-16T03:17:01.090Z,40.63
2022-11-16T03:20:13.939Z,38.65
2022-11-16T03:23:17.381Z,27.45
2022-11-16T03:26:25.364Z,28.25
2022-11-16T03:29:39.287Z,35.20
2022-11-16T03:32:57.158Z,37.95
2022-11-16T03:36:11.857Z,45.97
2022-11-16T03:39:25.691Z,42.00
2022-11-16T03:45:33.998Z,45.45
2022-11-16T03:48:41.003Z,47.85
2022-11-16T03:51:55.519Z,47.92
2022-11-16T03:54:59.570Z,49.60
2022-11-16T03:58:03.123Z,50.53
2022-11-16T04:01:06.715Z,56.53
2022-11-16T04:04:29.911Z,54.55
2022-11-16T04:07:52.204Z,56.38
2022-11-16T04:11:13.876Z,52.75
2022-11-16T04:14:40.352Z,43.83
2022-11-16T04:18:06.904Z,45.88
2022-11-16T04:21:57.307Z,38.63
2022-11-16T04:25:14.930Z,39.05
2022-11-16T04:28:27.563Z,38.45
2022-11-16T04:31:52.739Z,36.40
2022-11-16T04:35:15.336Z,34.10
2022-11-16T04:38:22.299Z,35.42
2022-11-16T04:41:44.707Z,35.53
2022-11-16T04:45:07.710Z,35.63
2022-11-16T04:48:24.440Z,38.33
2022-11-16T04:51:30.103Z,42.38
2022-11-16T04:54:34.686Z,43.40
2022-11-16T04:57:40.131Z,44.10
2022-11-16T05:00:44.043Z,47.65
2022-11-16T05:03:47.378Z,50.58
2022-11-16T05:06:50.806Z,46.00
2022-11-16T05:09:54.060Z,49.15
2022-11-16T05:12:58.782Z,47.13
2022-11-16T05:16:03.850Z,47.53
2022-11-16T05:19:28.118Z,51.47
2022-11-16T05:22:34.520Z,51.78
2022-11-16T05:25:38.679Z,48.92
2022-11-16T05:31:49.901Z,36.10
2022-11-16T05:34:55.331Z,39.40
2022-11-16T05:38:00.076Z,37.88
2022-11-16T05:41:03.988Z,39.42
2022-11-16T05:44:07.297Z,36.53
2022-11-16T05:47:10.886Z,37.42
2022-11-16T05:50:14.296Z,32.42
2022-11-16T05:53:22.624Z,31.35
2022-11-16T05:56:26.024Z,29.92
2022-11-16T05:59:30.755Z,30.25
2022-11-16T06:02:37.213Z,26.98
2022-11-16T06:05:40.926Z,26.45
2022-11-16T06:08:47.530Z,23.23
2022-11-16T06:11:55.920Z,26.20
2022-11-16T06:15:00.769Z,24.88
2022-11-16T06:18:07.937Z,23.40
2022-11-16T06:21:12.964Z,24.75
2022-11-16T06:24:17.141Z,25.40
2022-11-16T06:27:23.099Z,24.63
2022-11-16T06:30:26.985Z,24.20
2022-11-16T06:33:33.706Z,23.65
2022-11-16T06:36:40.411Z,23.60
2022-11-16T06:39:43.786Z,21.73
2022-11-16T06:42:47.464Z,21.77
2022-11-16T06:45:55.844Z,24.33
2022-11-16T06:48:59.383Z,22.05
2022-11-16T06:52:02.811Z,22.23
2022-11-16T06:55:08.150Z,21.60
2022-11-16T06:58:13.405Z,23.83
2022-11-16T07:01:18.430Z,21.63
2022-11-16T07:04:24.359Z,23.50
2022-11-16T07:07:32.569Z,24.25
2022-11-16T07:10:36.008Z,24.27
2022-11-16T07:13:40.898Z,21.70
2022-11-16T07:16:45.188Z,21.30
2022-11-16T07:19:48.445Z,21.75
2022-11-16T07:22:51.997Z,18.55
2022-11-16T07:25:55.601Z,18.70
2022-11-16T07:29:08.258Z,18.55
2022-11-16T07:32:15.723Z,18.95
2022-11-16T07:35:37.274Z,16.52
2022-11-16T07:38:41.147Z,20.42
2022-11-16T07:41:45.819Z,19.40
2022-11-16T07:45:04.049Z,21.63
2022-11-16T07:48:12.519Z,19.88
2022-11-16T07:51:34.120Z,21.63
2022-11-16T07:54:56.562Z,23.17
2022-11-16T07:58:02.251Z,25.63
2022-11-16T08:01:15.308Z,24.70
2022-11-16T08:04:19.972Z,25.70
2022-11-16T08:07:24.946Z,23.08
2022-11-16T08:10:32.412Z,26.42
2022-11-16T08:13:38.042Z,27.42
2022-11-16T08:16:41.363Z,28.33
2022-11-16T08:19:49.153Z,33.22
2022-11-16T08:22:52.907Z,26.20
2022-11-16T08:26:04.890Z,24.42
2022-11-16T08:29:09.016Z,26.83
2022-11-16T08:32:16.011Z,27.55
2022-11-16T08:35:20.021Z,29.92
2022-11-16T08:38:23.996Z,25.40
2022-11-16T08:41:27.326Z,16.85
2022-11-16T08:44:31.028Z,17.30
2022-11-16T08:47:38.350Z,17.38
2022-11-16T08:51:15.444Z,14.75
2022-11-16T08:54:07.091Z,12.02
2022-11-16T08:57:13.105Z,11.02
2022-11-16T09:00:19.686Z,17.40
2022-11-16T09:03:22.881Z,30.13
2022-11-16T09:06:27.889Z,10.93
2022-11-16T09:09:31.205Z,10.13
2022-11-16T09:12:35.494Z,10.82
2022-11-16T09:15:38.731Z,9.82
2022-11-16T09:18:42.157Z,13.07
2022-11-16T09:21:46.254Z,19.63
2022-11-16T09:24:49.624Z,20.40
2022-11-16T09:27:54.971Z,23.45
2022-11-16T09:31:06.723Z,25.17
2022-11-16T09:34:10.395Z,22.98
2022-11-16T09:37:13.757Z,23.77
2022-11-16T09:40:17.332Z,30.65
2022-11-16T09:43:29.056Z,22.15
2022-11-16T09:46:46.261Z,17.63
2022-11-16T09:49:59.732Z,13.77
2022-11-16T09:53:24.712Z,11.07
2022-11-16T09:56:32.407Z,9.68
2022-11-16T09:59:47.405Z,12.25
2022-11-16T10:03:03.503Z,10.10
2022-11-16T10:06:09.231Z,16.98
2022-11-16T10:09:13.407Z,17.92
2022-11-16T10:12:53.665Z,28.63
2022-11-16T10:16:14.962Z,33.53
2022-11-16T10:19:47.447Z,35.45
2022-11-16T10:23:10.617Z,31.55
2022-11-16T10:26:28.398Z,25.70
2022-11-16T10:29:32.002Z,31.58
2022-11-16T10:32:40.228Z,42.08
2022-11-16T10:35:54.930Z,59.72
2022-11-16T10:39:01.257Z,60.05
2022-11-16T10:42:10.958Z,61.10
2022-11-16T10:45:22.523Z,56.80
2022-11-16T10:48:49.955Z,63.15
2022-11-16T10:51:53.090Z,64.65
2022-11-16T10:54:56.460Z,62.38
2022-11-16T10:57:59.561Z,62.58
2022-11-16T11:01:03.318Z,65.28
2022-11-16T11:04:25.526Z,59.10
2022-11-16T11:07:34.082Z,74.55
2022-11-16T11:10:39.770Z,78.28
2022-11-16T11:13:43.122Z,73.82
2022-11-16T11:16:46.306Z,72.50
2022-11-16T11:20:01.632Z,65.30
2022-11-16T11:23:21.339Z,68.20
2022-11-16T11:26:37.946Z,65.85
2022-11-16T11:29:43.642Z,59.58
2022-11-16T11:32:48.407Z,50.08
2022-11-16T11:36:08.588Z,56.55
2022-11-16T11:39:35.161Z,41.10
2022-11-16T11:42:42.014Z,24.25
2022-11-16T11:45:54.492Z,21.17
2022-11-16T11:49:32.025Z,19.42
2022-11-16T11:52:47.939Z,24.10
2022-11-16T11:55:58.471Z,22.60
2022-11-16T11:59:05.306Z,23.40
2022-11-16T12:02:51.683Z,26.85
2022-11-16T12:06:16.641Z,28.25
2022-11-16T12:09:32.771Z,27.52
2022-11-16T12:13:07.215Z,26.15
2022-11-16T12:16:40.570Z,31.27
2022-11-16T12:20:19.869Z,26.85
2022-11-16T12:24:14.069Z,27.02
2022-11-16T12:28:07.054Z,25.48
2022-11-16T12:40:04.923Z,22.13
2022-11-16T12:43:32.991Z,26.40
2022-11-16T13:01:19.479Z,35.42
2022-11-16T13:04:31.967Z,35.30
2022-11-16T13:08:14.382Z,34.72
2022-11-16T13:26:58.070Z,31.67
2022-11-16T13:30:30.066Z,30.63
2022-11-16T13:44:25.085Z,35.30
2022-11-16T13:47:31.103Z,51.35
2022-11-16T13:50:55.614Z,68.13
2022-11-16T14:12:54.028Z,37.85
2022-11-16T14:16:27.149Z,44.63
2022-11-16T14:19:48.031Z,38.22
2022-11-16T14:23:16.434Z,35.67
2022-11-16T14:26:38.199Z,33.85
2022-11-16T14:29:52.582Z,30.92
2022-11-16T14:32:59.385Z,30.20
2022-11-16T14:36:06.424Z,29.20
2022-11-16T14:39:30.864Z,30.80
2022-11-16T14:47:37.577Z,27.80
2022-11-16T15:05:21.092Z,22.95
2022-11-16T15:08:30.506Z,28.70
2022-11-16T15:11:59.795Z,29.45
2022-11-16T15:15:11.655Z,27.13
2022-11-16T15:18:19.883Z,34.25
2022-11-16T15:21:25.290Z,35.70
2022-11-16T15:24:34.068Z,39.58
2022-11-16T15:27:42.817Z,39.05
2022-11-16T15:30:59.369Z,40.75
2022-11-16T15:34:02.694Z,34.28
2022-11-16T15:37:05.892Z,36.80
2022-11-16T15:40:11.358Z,33.45
2022-11-16T15:43:15.202Z,30.38
2022-11-16T15:46:18.954Z,29.75
2022-11-16T15:49:36.132Z,24.83
2022-11-16T15:52:48.004Z,23.20
2022-11-16T15:55:51.451Z,23.55
2022-11-16T15:59:01.847Z,21.20
2022-11-16T16:02:05.574Z,21.25
2022-11-16T16:05:39.611Z,21.77
2022-11-16T16:08:43.165Z,21.10
2022-11-16T16:11:46.388Z,21.23
2022-11-16T16:14:52.767Z,19.15
2022-11-16T16:17:56.973Z,19.38
2022-11-16T16:21:03.133Z,18.52
2022-11-16T16:24:06.414Z,17.00
2022-11-16T16:27:18.600Z,17.75
2022-11-16T16:30:21.939Z,16.35
2022-11-16T16:33:29.208Z,17.35
2022-11-16T16:36:32.404Z,19.25
2022-11-16T16:39:36.716Z,15.60
2022-11-16T16:42:41.677Z,14.48
2022-11-16T16:45:46.065Z,16.10
2022-11-16T16:48:49.422Z,14.07
2022-11-16T16:51:52.587Z,13.80
2022-11-16T16:54:56.797Z,14.07
2022-11-16T16:58:03.476Z,16.77
2022-11-16T17:01:06.873Z,15.32
2022-11-16T17:04:11.139Z,14.48
2022-11-16T17:07:14.283Z,16.35
2022-11-16T17:10:18.265Z,15.60
2022-11-16T17:13:22.783Z,15.80
2022-11-16T17:16:26.330Z,12.90
2022-11-16T17:19:30.327Z,14.85
2022-11-16T17:22:34.919Z,14.25
2022-11-16T17:25:38.859Z,13.02
2022-11-16T17:28:42.552Z,11.98
2022-11-16T17:31:48.258Z,10.45
2022-11-16T17:34:54.267Z,11.82
2022-11-16T17:37:59.271Z,11.10
2022-11-16T17:41:07.983Z,9.57
2022-11-16T17:44:11.410Z,10.07
2022-11-16T17:47:14.632Z,11.75
2022-11-16T17:50:17.952Z,10.10
2022-11-16T17:53:21.132Z,9.43
2022-11-16T17:56:29.002Z,10.43
2022-11-16T17:59:32.200Z,10.38
2022-11-16T18:02:35.363Z,10.57
2022-11-16T18:05:38.446Z,10.73
2022-11-16T18:08:42.790Z,9.80
2022-11-16T18:11:45.890Z,9.52
2022-11-16T18:15:13.444Z,10.70
2022-11-16T18:18:12.212Z,10.00
2022-11-16T18:21:20.684Z,10.35
2022-11-16T18:24:25.458Z,10.18
2022-11-16T18:27:28.696Z,9.73
2022-11-16T18:30:31.741Z,8.13
2022-11-16T18:33:36.971Z,8.88
2022-11-16T18:36:42.724Z,10.63
2022-11-16T18:39:45.889Z,7.95
2022-11-16T18:42:48.993Z,8.13
2022-11-16T18:45:52.120Z,6.68
2022-11-16T18:48:56.202Z,7.75
2022-11-16T18:51:59.323Z,5.70
2022-11-16T18:55:02.598Z,7.25
2022-11-16T18:58:22.495Z,6.55
2022-11-16T19:01:29.611Z,5.97
2022-11-16T19:04:34.144Z,5.28
2022-11-16T19:07:37.396Z,4.55
2022-11-16T19:10:40.608Z,4.43
2022-11-16T19:13:45.084Z,4.05
2022-11-16T19:16:54.137Z,4.22
2022-11-16T19:19:59.920Z,5.38
2022-11-16T19:23:02.983Z,4.40
2022-11-16T19:26:06.818Z,4.40
2022-11-16T19:29:10.058Z,4.00
2022-11-16T19:32:13.232Z,4.15
2022-11-16T19:35:16.928Z,5.13
2022-11-16T19:38:20.055Z,5.03
2022-11-16T19:41:23.900Z,4.60
2022-11-16T19:44:27.027Z,4.68
2022-11-16T19:47:31.043Z,5.10
2022-11-16T19:50:36.384Z,4.53
2022-11-16T19:53:40.745Z,4.28
2022-11-16T19:56:44.279Z,4.10
2022-11-16T19:59:48.584Z,4.40
2022-11-16T20:02:57.872Z,4.22
2022-11-16T20:06:14.661Z,4.68
2022-11-16T20:09:17.943Z,4.30
2022-11-16T20:12:21.073Z,4.22
2022-11-16T20:15:26.044Z,5.40
2022-11-16T20:18:30.824Z,4.80
2022-11-16T20:21:36.547Z,4.70
2022-11-16T20:24:39.697Z,6.53
2022-11-16T20:27:42.942Z,4.72
2022-11-16T20:30:50.309Z,5.30
2022-11-16T20:34:01.214Z,5.00
2022-11-16T20:37:04.404Z,5.35
2022-11-16T20:40:08.033Z,4.63
2022-11-16T20:43:15.005Z,4.75
2022-11-16T20:46:19.295Z,6.13
2022-11-16T20:49:22.461Z,5.30
2022-11-16T20:52:25.626Z,5.22
2022-11-16T20:55:28.770Z,5.95
2022-11-16T20:58:33.002Z,5.30
2022-11-16T21:01:37.324Z,5.70
2022-11-16T21:04:40.645Z,5.88
2022-11-16T21:07:44.585Z,5.22
2022-11-16T21:10:48.906Z,4.90
2022-11-16T21:14:11.229Z,6.03
2022-11-16T21:17:14.454Z,5.05
2022-11-16T21:20:27.347Z,4.97
2022-11-16T21:23:33.738Z,4.70
2022-11-16T21:26:37.925Z,5.50
2022-11-16T21:29:41.128Z,5.40
2022-11-16T21:32:44.305Z,7.05
2022-11-16T21:35:47.468Z,5.85
2022-11-16T21:38:51.697Z,5.20
2022-11-16T21:41:54.824Z,5.03
2022-11-16T21:44:57.916Z,5.70
2022-11-16T21:48:01.034Z,6.13
2022-11-16T21:51:06.502Z,6.20
2022-11-16T21:54:09.673Z,6.55
2022-11-16T21:57:12.978Z,6.40
2022-11-16T22:00:16.583Z,5.70
2022-11-16T22:03:19.780Z,5.97
2022-11-16T22:06:41.101Z,5.82
2022-11-16T22:09:44.310Z,6.50
2022-11-16T22:12:47.503Z,5.72
2022-11-16T22:15:50.769Z,5.82
2022-11-16T22:18:54.006Z,5.65
2022-11-16T22:21:58.405Z,6.32
2022-11-16T22:25:01.657Z,6.90
2022-11-16T22:28:21.330Z,5.30
2022-11-16T22:31:24.684Z,7.03
2022-11-16T22:34:27.907Z,6.55
2022-11-16T22:37:31.183Z,5.45
2022-11-16T22:40:34.392Z,5.80
2022-11-16T22:43:38.087Z,7.30
2022-11-16T22:46:41.416Z,5.20
2022-11-16T22:49:44.653Z,7.15
2022-11-16T22:52:47.875Z,7.75
2022-11-16T22:55:51.093Z,8.55
2022-11-16T22:58:54.441Z,8.07
2022-11-16T23:01:57.704Z,6.50
2022-11-16T23:05:00.978Z,8.13
2022-11-16T23:08:04.229Z,7.32
2022-11-16T23:11:37.088Z,8.88
2022-11-16T23:14:58.371Z,7.00
2022-11-16T23:18:01.551Z,8.02
2022-11-16T23:21:23.063Z,8.10
2022-11-16T23:24:44.477Z,6.65
2022-11-16T23:27:59.387Z,5.97
2022-11-16T23:31:02.712Z,6.90
2022-11-16T23:34:06.281Z,7.18
2022-11-16T23:37:09.517Z,7.85
2022-11-16T23:40:14.093Z,7.68
2022-11-16T23:43:35.700Z,7.53
2022-11-16T23:46:39.123Z,10.00
2022-11-16T23:49:42.339Z,9.18
2022-11-16T23:52:45.532Z,7.32
2022-11-16T23:55:48.710Z,6.68
2022-11-16T23:58:55.799Z,9.23
